Pagrindinis puslapis
METAR-TAF:

METAR-TAF

Oro uostai :

Vadsė, Norvegija

platuma: 70-04N, ilguma: 029-51E, Aukštis: 3 m

Dabartinis oras

Ataskaita buvo paskelbta 40 minutes, ne 15:50 UTC
Vėjas 16 kt iš Pietvakarių
Temperatūra 1°C
Drėgmė 80%
Slėgis 978 hPa
Matomumas 10 km arba daugiau
Su prošvaistėmis ne aukštis 1700 ft

METAR: ENVD 211550Z 22016KT 9999 BKN017 01/M02 Q0978

Laikas: 17:30 (16:30 UTC)

Prognozė

Ataskaita buvo paskelbta 2 valandos ir 30 minutes, ne 14:00 UTC
Prognozė galioja nuo 21 metu 15 UTC su 21 metu 24 UTC
Vėjas 15 kt iš Pietvakarių
Matomumas 10 km arba daugiau
Su prošvaistėmis ne aukštis 2500 ft

TAF: ENVD 211400Z 2115/2124 22015KT 9999 BKN025

Orai ataskaitas ir orų prognozės (METAR, TAF).

turimą stotys yra geltonos ir raudonos taškus žemėlapyje.

Perkelti pele per norėdami pamatyti stoties vardą.

Tada spustelėkite, norėdami matyti oro stebėjimo ir prognozės.

Norėdami pakeisti žemėlapį: spustelėkite ant žalios mygtukų su juodo kryžiaus žemyn,; žalią mygtuką su brūkšneliu, jei norite nutolinti; arba žalių rodyklių gretimoms žemėlapius.


METAR-TAF: